TimeAKDT,TemperatureF,Dew PointF,Humidity,Sea Level PressureIn,VisibilityMPH,Wind Direction,Wind SpeedMPH,Gust SpeedMPH,PrecipitationIn,Events,Conditions,WindDirDegrees,DateUTC
12:53 AM,51.1,51.1,100,30.32,10.0,SSE,4.6,-,N/A,,Clear,150,2013-07-28 08:53:00
1:53 AM,50.0,50.0,100,30.32,10.0,SSE,3.5,-,N/A,,Clear,150,2013-07-28 09:53:00
2:53 AM,50.0,50.0,100,30.32,10.0,Calm,Calm,-,N/A,,Clear,0,2013-07-28 10:53:00
3:53 AM,46.9,46.9,100,30.31,10.0,Calm,Calm,-,N/A,,Clear,0,2013-07-28 11:53:00
4:40 AM,48.2,48.2,100,30.30,1.2,Calm,Calm,-,N/A,,Clear,0,2013-07-28 12:40:00
4:43 AM,46.4,46.4,100,30.30,0.2,Calm,Calm,-,N/A,Fog,Fog,0,2013-07-28 12:43:00
4:53 AM,46.0,46.0,100,30.31,0.2,Calm,Calm,-,N/A,Fog,Fog,0,2013-07-28 12:53:00
5:15 AM,46.4,46.4,100,30.30,0.8,Calm,Calm,-,N/A,,Mist,0,2013-07-28 13:15:00
5:26 AM,46.4,46.4,100,30.30,0.2,Calm,Calm,-,N/A,Fog,Fog,0,2013-07-28 13:26:00
5:51 AM,44.6,44.6,100,30.30,1.5,Calm,Calm,-,N/A,,Partly Cloudy,0,2013-07-28 13:51:00
5:53 AM,45.0,45.0,100,30.30,10.0,Calm,Calm,-,N/A,,Partly Cloudy,0,2013-07-28 13:53:00
6:07 AM,46.4,46.4,100,30.29,10.0,Calm,Calm,-,N/A,,Partly Cloudy,0,2013-07-28 14:07:00
6:53 AM,46.9,46.9,100,30.30,10.0,Calm,Calm,-,N/A,,Clear,0,2013-07-28 14:53:00
7:53 AM,52.0,52.0,100,30.30,10.0,Calm,Calm,-,N/A,,Clear,0,2013-07-28 15:53:00
8:53 AM,55.0,53.1,93,30.30,10.0,WSW,4.6,-,N/A,,Clear,250,2013-07-28 16:53:00
9:53 AM,55.9,53.1,90,30.30,10.0,SW,3.5,-,N/A,,Partly Cloudy,230,2013-07-28 17:53:00
10:53 AM,57.9,53.1,84,30.29,10.0,SSW,3.5,-,N/A,,Overcast,210,2013-07-28 18:53:00
11:53 AM,60.1,54.0,80,30.28,10.0,South,3.5,-,N/A,,Partly Cloudy,180,2013-07-28 19:53:00
12:53 PM,62.1,54.0,75,30.27,10.0,SW,4.6,-,N/A,,Clear,220,2013-07-28 20:53:00
1:53 PM,64.9,55.0,70,30.26,10.0,WSW,5.8,-,N/A,,Clear,250,2013-07-28 21:53:00
2:53 PM,66.0,55.9,70,30.25,10.0,WSW,6.9,-,N/A,,Partly Cloudy,250,2013-07-28 22:53:00
3:53 PM,66.9,55.0,66,30.23,10.0,SW,8.1,-,N/A,,Clear,230,2013-07-28 23:53:00
4:53 PM,66.9,55.9,68,30.22,10.0,WSW,6.9,-,N/A,,Clear,240,2013-07-29 00:53:00
5:53 PM,66.9,55.9,68,30.20,10.0,WSW,9.2,-,N/A,,Clear,240,2013-07-29 01:53:00
6:53 PM,61.0,55.0,81,30.20,10.0,SSW,8.1,-,N/A,,Clear,210,2013-07-29 02:53:00
7:53 PM,57.9,55.0,90,30.19,10.0,SSW,9.2,-,N/A,,Clear,210,2013-07-29 03:53:00
8:53 PM,55.9,54.0,93,30.19,10.0,SSW,15.0,-,N/A,,Clear,210,2013-07-29 04:53:00
9:53 PM,55.0,53.1,93,30.19,10.0,SSW,11.5,-,N/A,,Clear,210,2013-07-29 05:53:00
10:53 PM,54.0,53.1,97,30.19,10.0,SSW,9.2,-,N/A,,Clear,210,2013-07-29 06:53:00
11:53 PM,55.9,54.0,93,30.19,10.0,South,10.4,-,N/A,,Clear,190,2013-07-29 07:53:00